createdAt,value
2023-01-17T09:58:20.330Z,98416.47
2023-01-17T10:01:03.708Z,98399.59
2023-01-17T10:03:39.039Z,98426.16
2023-01-17T10:06:37.759Z,98409.59
2023-01-17T10:09:15.248Z,98415.84
2023-01-17T10:11:55.634Z,98411.19
2023-01-17T10:14:45.043Z,98422.53
2023-01-17T10:17:39.201Z,98423.59
2023-01-17T10:20:43.195Z,98417.03
2023-01-17T10:23:31.894Z,98414.06
2023-01-17T10:31:58.790Z,98371.00
2023-01-17T10:34:40.679Z,98383.34
2023-01-17T10:37:19.305Z,98385.66
2023-01-17T10:39:51.376Z,98386.47
2023-01-17T10:42:20.588Z,98387.78
2023-01-17T10:45:20.980Z,98387.84
2023-01-17T10:47:59.355Z,98384.66
2023-01-17T10:50:34.276Z,98384.66
2023-01-17T10:53:33.818Z,98378.28
2023-01-17T10:56:03.660Z,98381.00
2023-01-17T10:58:32.191Z,98365.28
2023-01-17T11:03:58.689Z,98384.87
2023-01-17T11:06:28.026Z,98377.78
2023-01-17T11:11:51.170Z,98380.16
2023-01-17T11:17:19.686Z,98359.94
2023-01-17T11:19:51.484Z,98300.41
2023-01-17T11:22:19.988Z,98323.56
2023-01-17T11:24:53.799Z,98349.47
2023-01-17T11:27:31.175Z,98338.16
2023-01-17T11:30:20.995Z,98339.84
2023-01-17T11:32:55.616Z,98316.13
2023-01-17T11:35:28.304Z,98314.09
2023-01-17T11:38:05.129Z,98316.00
2023-01-17T11:40:48.156Z,98311.31
2023-01-17T11:43:24.203Z,98315.72
2023-01-17T11:46:06.883Z,98317.81
2023-01-17T11:48:38.007Z,98329.41
2023-01-17T11:51:31.822Z,98302.47
2023-01-17T11:54:17.157Z,98329.91
2023-01-17T11:56:46.710Z,98327.66
2023-01-17T12:02:38.408Z,98320.88
2023-01-17T12:05:15.527Z,98320.25
2023-01-17T12:07:54.934Z,98322.50
2023-01-17T12:10:46.226Z,98309.81
2023-01-17T12:13:54.211Z,98287.22
2023-01-17T12:16:45.744Z,98275.56
2023-01-17T12:19:32.359Z,98257.50
2023-01-17T12:22:36.920Z,98282.81
2023-01-17T12:25:16.939Z,98263.63
2023-01-17T12:28:10.217Z,98275.62
2023-01-17T12:30:44.181Z,98274.38
2023-01-17T12:33:36.679Z,98288.56
2023-01-17T12:39:09.580Z,98282.91
2023-01-17T12:42:09.449Z,98238.94
2023-01-17T12:45:01.629Z,98286.81
2023-01-17T12:47:38.050Z,98282.78
2023-01-17T12:50:20.364Z,98278.75
2023-01-17T12:53:02.686Z,98285.28
2023-01-17T12:55:45.888Z,98289.47
2023-01-17T12:58:20.337Z,98274.50
2023-01-17T13:01:02.897Z,98267.41
2023-01-17T13:04:06.306Z,98262.56
2023-01-17T13:06:56.776Z,98264.28
2023-01-17T13:23:27.663Z,98216.84
2023-01-17T13:34:57.631Z,98147.13
2023-01-17T13:37:46.576Z,98140.13
2023-01-17T13:40:30.010Z,98141.25
2023-01-17T13:43:00.980Z,98144.31
2023-01-17T13:45:37.780Z,98138.81
2023-01-17T13:48:18.826Z,98131.94
2023-01-17T13:51:19.946Z,98135.34
2023-01-17T13:53:48.295Z,98125.06
2023-01-17T13:56:19.157Z,98126.69
2023-01-17T13:58:58.399Z,98114.50
2023-01-17T14:01:34.813Z,98099.94
2023-01-17T14:04:08.144Z,98089.16
2023-01-17T14:06:36.393Z,98090.09
2023-01-17T14:09:22.358Z,98091.53
2023-01-17T14:20:26.157Z,98103.06
2023-01-17T14:41:54.685Z,98096.34
2023-01-17T14:44:25.878Z,98096.34
2023-01-17T14:46:53.964Z,98085.56
2023-01-17T14:49:25.589Z,98088.00
2023-01-17T14:52:05.040Z,98085.38
2023-01-17T14:54:34.177Z,98087.41
2023-01-17T14:57:35.945Z,98081.94
2023-01-17T15:00:11.295Z,98071.25
2023-01-17T15:02:44.201Z,98071.47
2023-01-17T15:13:45.356Z,98036.91
2023-01-17T15:16:20.184Z,98041.06
2023-01-17T15:18:48.783Z,98044.13
2023-01-17T15:21:23.176Z,98033.59
2023-01-17T15:24:07.373Z,98035.06
2023-01-17T15:26:39.247Z,98031.62
2023-01-17T15:29:12.786Z,98016.84
2023-01-17T15:31:41.569Z,98020.09
2023-01-17T15:56:27.878Z,97982.16
2023-01-17T15:59:43.217Z,97982.16
2023-01-17T16:02:34.724Z,97983.88
2023-01-17T16:05:25.033Z,97977.25
2023-01-17T16:07:58.605Z,97967.75
2023-01-17T16:10:29.505Z,97965.78
2023-01-17T16:12:59.337Z,97963.94
2023-01-17T16:15:29.391Z,97965.41
2023-01-17T16:26:36.747Z,97948.75
2023-01-17T16:29:07.690Z,97948.25
2023-01-17T16:31:35.672Z,97939.53
2023-01-17T16:34:03.863Z,97921.81
2023-01-17T16:36:32.217Z,97931.50
2023-01-17T16:39:00.419Z,97923.00
2023-01-17T16:41:29.063Z,97914.59
2023-01-17T16:44:00.343Z,97922.72
2023-01-17T16:46:29.842Z,97904.84
2023-01-17T16:57:05.899Z,97875.63
2023-01-17T17:04:33.655Z,97857.53
2023-01-17T17:07:02.425Z,97857.53
2023-01-17T17:09:31.439Z,97850.78
2023-01-17T17:11:59.745Z,97839.81
2023-01-17T17:14:28.214Z,97823.25
2023-01-17T17:16:56.973Z,97818.00
2023-01-17T17:19:25.502Z,97795.94
2023-01-17T17:21:53.894Z,97741.22
2023-01-17T17:24:21.846Z,97744.25
2023-01-17T17:26:51.051Z,97736.66
2023-01-17T17:51:55.078Z,97682.28
2023-01-17T17:54:24.815Z,97660.91
2023-01-17T17:56:54.054Z,97675.28
2023-01-17T17:59:22.429Z,97673.47
2023-01-17T18:01:52.651Z,97671.88
2023-01-17T18:04:22.229Z,97665.69
2023-01-17T18:06:50.201Z,97660.31
2023-01-17T18:09:18.491Z,97640.06
2023-01-17T18:14:28.294Z,97648.44
2023-01-17T18:37:08.409Z,97539.37
2023-01-17T18:39:37.209Z,97505.28
2023-01-17T18:42:05.871Z,97536.63
2023-01-17T18:44:34.056Z,97538.00
2023-01-17T18:47:04.836Z,97526.56
2023-01-17T18:49:34.001Z,97530.09
2023-01-17T18:52:03.067Z,97513.66
2023-01-17T18:54:32.115Z,97484.63
2023-01-17T18:57:00.991Z,97477.66
2023-01-17T18:59:30.685Z,97501.87
2023-01-17T19:01:58.888Z,97499.47
2023-01-17T19:22:25.943Z,97457.09
2023-01-17T19:24:55.087Z,97457.09
2023-01-17T19:27:23.231Z,97443.47
2023-01-17T19:29:51.390Z,97423.81
2023-01-17T19:32:19.819Z,97431.22
2023-01-17T19:34:49.474Z,97436.38
2023-01-17T19:37:17.652Z,97426.66
2023-01-17T19:39:46.291Z,97433.19
2023-01-17T20:02:11.705Z,97457.13
2023-01-17T20:04:40.577Z,97457.13
2023-01-17T20:07:08.707Z,97463.13
2023-01-17T20:09:36.873Z,97461.91
2023-01-17T20:12:05.790Z,97480.06
2023-01-17T20:14:33.877Z,97469.19
2023-01-17T20:17:02.092Z,97464.34
2023-01-17T20:19:30.504Z,97447.56
2023-01-17T20:42:30.777Z,97419.81
2023-01-17T20:44:59.684Z,97419.81
2023-01-17T20:47:29.720Z,97405.84
2023-01-17T20:49:57.883Z,97406.41
2023-01-17T20:52:26.191Z,97409.00
2023-01-17T20:54:54.250Z,97383.94
2023-01-17T20:57:22.842Z,97382.31
2023-01-17T21:20:29.343Z,97392.28
2023-01-17T21:22:57.879Z,97392.28
2023-01-17T21:25:25.790Z,97397.25
2023-01-17T21:27:53.780Z,97384.84
2023-01-17T21:30:22.067Z,97386.75
2023-01-17T21:32:49.971Z,97389.47
2023-01-17T21:35:17.987Z,97388.38
2023-01-17T21:37:58.449Z,97397.28
2023-01-17T21:58:57.508Z,97406.88
2023-01-17T22:01:29.187Z,97406.88
2023-01-17T22:04:00.092Z,97410.47
2023-01-17T22:06:31.041Z,97423.63
2023-01-17T22:08:59.435Z,97431.53
2023-01-17T22:11:30.565Z,97436.50
2023-01-17T22:13:59.334Z,97451.56
2023-01-17T22:37:10.200Z,97476.19
2023-01-17T22:39:39.327Z,97476.19
2023-01-17T22:42:07.805Z,97499.66
2023-01-17T22:44:35.631Z,97498.75
2023-01-17T22:47:03.859Z,97514.34
2023-01-17T22:49:32.015Z,97497.09
2023-01-17T22:51:59.820Z,97507.50
2023-01-17T22:54:28.114Z,97517.97
2023-01-17T23:15:14.251Z,97523.72
2023-01-17T23:18:01.302Z,97523.72
2023-01-17T23:20:29.186Z,97527.56
2023-01-17T23:22:57.536Z,97540.81
2023-01-17T23:25:25.655Z,97540.22
2023-01-17T23:28:11.714Z,97537.22
2023-01-17T23:30:41.646Z,97547.37
2023-01-17T23:51:10.615Z,97526.47
2023-01-17T23:53:39.911Z,97526.47
2023-01-17T23:56:19.092Z,97523.50
2023-01-17T23:58:47.349Z,97513.25
